Time,TemperatureF,DewpointF,PressureIn,WindDirection,WindDirectionDegrees,WindSpeedMPH,WindSpeedGustMPH,Humidity,HourlyPrecipIn,Conditions,Clouds,dailyrainin,SoftwareType,DateUTC
2013-03-26 00:02:00,7.6,1.6,30.38,East,81,2.3,2.3,76,0.00,RA,,0.00,WeatherDisplay:10.37,2013-03-26 06:02:00,
2013-03-26 00:07:00,7.6,1.6,30.38,East,81,0.0,0.0,76,0.00,RA,,0.00,WeatherDisplay:10.37,2013-03-26 06:07:00,
2013-03-26 00:12:00,7.4,1.4,30.38,East,81,0.0,0.0,76,0.00,CLR,,0.00,WeatherDisplay:10.37,2013-03-26 06:12:00,
2013-03-26 00:17:00,7.2,1.2,30.39,East,81,2.0,2.0,76,0.00,CLR,,0.00,WeatherDisplay:10.37,2013-03-26 06:17:00,
2013-03-26 00:22:00,7.0,1.0,30.39,East,81,3.5,3.5,76,0.00,CLR,,0.00,WeatherDisplay:10.37,2013-03-26 06:22:00,
2013-03-26 00:27:00,6.7,0.7,30.39,SSE,168,2.3,2.3,76,0.00,CLR,,0.00,WeatherDisplay:10.37,2013-03-26 06:27:00,
2013-03-26 00:32:00,6.7,0.7,30.38,South,180,3.5,3.5,76,0.00,CLR,,0.00,WeatherDisplay:10.37,2013-03-26 06:32:00,
2013-03-26 00:37:00,6.7,1.0,30.38,South,189,2.0,2.0,77,0.00,CLR,,0.00,WeatherDisplay:10.37,2013-03-26 06:37:00,
2013-03-26 00:42:00,6.9,1.2,30.38,South,186,2.3,2.3,77,0.00,CLR,,0.00,WeatherDisplay:10.37,2013-03-26 06:42:00,
2013-03-26 00:47:00,6.9,1.2,30.38,SSW,197,3.5,3.5,77,0.00,CLR,,0.00,WeatherDisplay:10.37,2013-03-26 06:47:00,
2013-03-26 00:52:00,7.0,1.3,30.38,WNW,295,5.8,5.8,77,0.00,CLR,,0.00,WeatherDisplay:10.37,2013-03-26 06:52:00,
2013-03-26 00:57:00,7.2,1.2,30.38,NW,326,3.5,3.5,76,0.00,CLR,,0.00,WeatherDisplay:10.37,2013-03-26 06:57:00,
2013-03-26 01:02:00,7.7,1.7,30.37,ENE,64,2.3,2.3,76,0.00,CLR,,0.00,WeatherDisplay:10.37,2013-03-26 07:02:00,
2013-03-26 01:07:00,7.9,1.6,30.37,SW,228,4.6,4.6,75,0.00,CLR,,0.00,WeatherDisplay:10.37,2013-03-26 07:07:00,
2013-03-26 01:12:00,7.9,1.6,30.37,SW,228,2.0,2.0,75,0.00,CLR,,0.00,WeatherDisplay:10.37,2013-03-26 07:12:00,
2013-03-26 01:17:00,7.7,1.1,30.36,NW,306,2.0,2.0,74,0.00,CLR,,0.00,WeatherDisplay:10.37,2013-03-26 07:17:00,
2013-03-26 01:22:00,7.0,0.2,30.36,NNW,327,3.5,3.5,73,0.00,CLR,,0.00,WeatherDisplay:10.37,2013-03-26 07:22:00,
2013-03-26 01:27:00,6.7,0.2,30.36,NNW,327,3.5,3.5,74,0.00,CLR,,0.00,WeatherDisplay:10.37,2013-03-26 07:27:00,
2013-03-26 01:32:00,6.5,0.0,30.36,NNW,327,0.0,0.0,74,0.00,CLR,,0.00,WeatherDisplay:10.37,2013-03-26 07:32:00,
2013-03-26 01:37:00,6.5,0.0,30.36,NNW,327,0.0,0.0,74,0.00,CLR,,0.00,WeatherDisplay:10.37,2013-03-26 07:37:00,
2013-03-26 01:42:00,6.1,-0.4,30.36,North,4,5.0,5.0,74,0.00,CLR,,0.00,WeatherDisplay:10.37,2013-03-26 07:42:00,
2013-03-26 01:47:00,5.8,-0.7,30.37,North,352,5.0,5.0,74,0.00,CLR,,0.00,WeatherDisplay:10.37,2013-03-26 07:47:00,
2013-03-26 01:52:00,5.4,-0.8,30.37,North,352,3.0,3.0,75,0.00,CLR,,0.00,WeatherDisplay:10.37,2013-03-26 07:52:00,
2013-03-26 01:57:00,5.4,-0.8,30.37,North,352,2.3,2.3,75,0.00,CLR,,0.00,WeatherDisplay:10.37,2013-03-26 07:57:00,
2013-03-26 02:02:00,5.6,-0.3,30.36,North,350,2.3,2.3,76,0.00,CLR,,0.00,WeatherDisplay:10.37,2013-03-26 08:02:00,
2013-03-26 02:07:00,5.8,-0.1,30.36,NNW,344,2.3,2.3,76,0.00,CLR,,0.00,WeatherDisplay:10.37,2013-03-26 08:07:00,
2013-03-26 02:12:00,5.8,-0.1,30.36,NNW,344,2.3,2.3,76,0.00,CLR,,0.00,WeatherDisplay:10.37,2013-03-26 08:12:00,
2013-03-26 02:17:00,5.8,-0.1,30.34,NNW,344,0.0,0.0,76,0.00,CLR,,0.00,WeatherDisplay:10.37,2013-03-26 08:17:00,
2013-03-26 02:22:00,6.0,0.1,30.34,NNW,345,3.0,3.0,76,0.00,CLR,,0.00,WeatherDisplay:10.37,2013-03-26 08:22:00,
2013-03-26 02:27:00,6.3,0.3,30.34,NNW,340,2.3,2.3,76,0.00,CLR,,0.00,WeatherDisplay:10.37,2013-03-26 08:27:00,
2013-03-26 02:32:00,6.5,0.5,30.33,NNE,31,2.3,0.0,76,0.00,CLR,,0.00,WeatherDisplay:10.37,2013-03-26 08:32:00,
2013-03-26 02:37:00,6.7,0.7,30.33,NNW,345,2.3,2.3,76,0.00,CLR,,0.00,WeatherDisplay:10.37,2013-03-26 08:37:00,
2013-03-26 02:42:00,7.0,0.7,30.33,North,7,4.6,4.6,75,0.00,CLR,,0.00,WeatherDisplay:10.37,2013-03-26 08:42:00,
2013-03-26 02:47:00,7.6,1.6,30.32,NNE,14,2.3,2.3,76,0.00,CLR,,0.00,WeatherDisplay:10.37,2013-03-26 08:47:00,
2013-03-26 02:52:00,8.1,1.8,30.32,North,354,6.0,6.0,75,0.00,CLR,,0.00,WeatherDisplay:10.37,2013-03-26 08:52:00,
2013-03-26 02:57:00,8.6,1.7,30.32,NNE,14,0.0,0.0,73,0.00,CLR,,0.00,WeatherDisplay:10.37,2013-03-26 08:57:00,
2013-03-26 03:02:00,8.8,1.9,30.30,NNE,14,3.0,3.0,73,0.00,CLR,,0.00,WeatherDisplay:10.37,2013-03-26 09:02:00,
2013-03-26 03:07:00,9.7,2.2,30.30,NNE,14,6.9,6.9,71,0.00,CLR,,0.00,WeatherDisplay:10.37,2013-03-26 09:07:00,
2013-03-26 03:12:00,10.2,2.0,30.30,ENE,70,3.5,3.5,69,0.00,CLR,,0.00,WeatherDisplay:10.37,2013-03-26 09:12:00,
2013-03-26 03:17:00,10.4,1.9,30.30,ENE,64,1.2,0.0,68,0.00,CLR,,0.00,WeatherDisplay:10.37,2013-03-26 09:17:00,
2013-03-26 03:23:00,10.5,2.0,30.30,North,352,4.6,4.6,68,0.00,CLR,,0.00,WeatherDisplay:10.37,2013-03-26 09:23:00,
2013-03-26 03:28:00,10.4,1.9,30.30,North,351,8.1,8.1,68,0.00,CLR,,0.00,WeatherDisplay:10.37,2013-03-26 09:28:00,
2013-03-26 03:33:00,11.2,2.4,30.27,NNW,334,6.0,6.0,67,0.00,CLR,,0.00,WeatherDisplay:10.37,2013-03-26 09:33:00,
2013-03-26 03:38:00,11.7,1.9,30.27,SSW,208,1.2,1.2,64,0.00,CLR,,0.00,WeatherDisplay:10.37,2013-03-26 09:38:00,
2013-03-26 03:43:00,11.6,1.8,30.27,SSW,208,3.5,3.5,64,0.00,CLR,,0.00,WeatherDisplay:10.37,2013-03-26 09:43:00,
2013-03-26 03:48:00,10.9,1.1,30.27,SSW,208,2.3,2.3,64,0.00,CLR,,0.00,WeatherDisplay:10.37,2013-03-26 09:48:00,
2013-03-26 03:53:00,10.4,1.0,30.27,WNW,303,2.3,2.3,65,0.00,CLR,,0.00,WeatherDisplay:10.37,2013-03-26 09:53:00,
2013-03-26 03:58:00,10.5,1.4,30.27,North,358,4.6,4.6,66,0.00,CLR,,0.00,WeatherDisplay:10.37,2013-03-26 09:58:00,
2013-03-26 04:03:00,10.7,1.6,30.26,North,352,5.8,5.8,66,0.00,CLR,,0.00,WeatherDisplay:10.37,2013-03-26 10:03:00,
2013-03-26 04:08:00,11.1,1.9,30.26,NE,49,3.5,3.5,66,0.00,CLR,,0.00,WeatherDisplay:10.37,2013-03-26 10:08:00,
2013-03-26 04:13:00,11.4,2.2,30.26,NNE,19,3.5,3.5,66,0.00,CLR,,0.00,WeatherDisplay:10.37,2013-03-26 10:13:00,
2013-03-26 04:18:00,11.9,2.7,30.26,NNE,28,4.6,4.6,66,0.00,CLR,,0.00,WeatherDisplay:10.37,2013-03-26 10:18:00,
2013-03-26 04:23:00,12.9,3.0,30.26,NE,45,5.0,5.0,64,0.00,CLR,,0.00,WeatherDisplay:10.37,2013-03-26 10:23:00,
2013-03-26 04:28:00,13.6,3.7,30.26,NNE,29,6.0,6.0,64,0.00,CLR,,0.00,WeatherDisplay:10.37,2013-03-26 10:28:00,
2013-03-26 04:33:00,14.8,4.1,30.24,NE,52,2.3,2.3,62,0.00,CLR,,0.00,WeatherDisplay:10.37,2013-03-26 10:33:00,
2013-03-26 04:38:00,15.2,3.8,30.24,North,358,6.9,6.9,60,0.00,CLR,,0.00,WeatherDisplay:10.37,2013-03-26 10:38:00,
2013-03-26 04:43:00,15.2,3.4,30.24,North,0,1.2,1.2,59,0.00,CLR,,0.00,WeatherDisplay:10.37,2013-03-26 10:43:00,
2013-03-26 04:48:00,15.4,3.2,30.22,North,0,1.2,1.2,58,0.00,CLR,,0.00,WeatherDisplay:10.37,2013-03-26 10:48:00,
2013-03-26 04:53:00,15.4,4.0,30.22,NNW,343,5.0,5.0,60,0.00,CLR,,0.00,WeatherDisplay:10.37,2013-03-26 10:53:00,
2013-03-26 04:58:00,15.4,4.3,30.22,NNW,343,4.6,4.6,61,0.00,CLR,,0.00,WeatherDisplay:10.37,2013-03-26 10:58:00,
2013-03-26 05:03:00,15.6,4.5,30.22,NNE,21,3.5,3.5,61,0.00,CLR,,0.00,WeatherDisplay:10.37,2013-03-26 11:03:00,
2013-03-26 05:08:00,15.7,4.3,30.22,NNE,21,2.3,2.3,60,0.00,CLR,,0.00,WeatherDisplay:10.37,2013-03-26 11:08:00,
2013-03-26 05:13:00,15.9,4.4,30.22,NNE,29,5.8,5.8,60,0.00,CLR,,0.00,WeatherDisplay:10.37,2013-03-26 11:13:00,
2013-03-26 05:18:00,16.4,4.2,30.23,North,350,4.6,4.6,58,0.00,CLR,,0.00,WeatherDisplay:10.37,2013-03-26 11:18:00,
2013-03-26 05:23:00,16.7,4.8,30.23,WNW,292,2.0,2.0,59,0.00,CLR,,0.00,WeatherDisplay:10.37,2013-03-26 11:23:00,
2013-03-26 05:28:00,16.2,4.7,30.23,West,266,2.3,2.3,60,0.00,CLR,,0.00,WeatherDisplay:10.37,2013-03-26 11:28:00,
2013-03-26 05:33:00,16.4,4.6,30.22,WNW,288,2.3,2.3,59,0.00,CLR,,0.00,WeatherDisplay:10.37,2013-03-26 11:33:00,
2013-03-26 05:38:00,16.5,5.0,30.22,NNE,22,5.0,5.0,60,0.00,CLR,,0.00,WeatherDisplay:10.37,2013-03-26 11:38:00,
2013-03-26 05:43:00,16.4,4.9,30.22,North,11,3.5,3.5,60,0.00,CLR,,0.00,WeatherDisplay:10.37,2013-03-26 11:43:00,
2013-03-26 05:48:00,16.5,5.0,30.20,North,9,2.3,2.3,60,0.00,CLR,,0.00,WeatherDisplay:10.37,2013-03-26 11:48:00,
2013-03-26 05:53:00,16.9,5.4,30.20,NW,320,1.2,1.2,60,0.00,CLR,,0.00,WeatherDisplay:10.37,2013-03-26 11:53:00,
2013-03-26 05:58:00,17.7,6.5,30.20,West,275,4.6,4.6,61,0.00,CLR,,0.00,WeatherDisplay:10.37,2013-03-26 11:58:00,
2013-03-26 06:03:00,21.1,8.2,30.20,West,259,11.5,11.5,57,0.00,CLR,,0.00,WeatherDisplay:10.37,2013-03-26 12:03:00,
2013-03-26 06:08:00,23.6,8.9,30.20,WSW,247,7.0,7.0,53,0.00,CLR,,0.00,WeatherDisplay:10.37,2013-03-26 12:08:00,
2013-03-26 06:13:00,25.6,9.1,30.20,WSW,247,11.5,11.5,49,0.00,CLR,,0.00,WeatherDisplay:10.37,2013-03-26 12:13:00,
2013-03-26 06:18:00,26.4,8.9,30.15,WSW,252,11.5,11.5,47,0.00,CLR,,0.00,WeatherDisplay:10.37,2013-03-26 12:18:00,
2013-03-26 06:23:00,27.0,8.9,30.15,West,262,12.7,12.7,46,0.00,CLR,,0.00,WeatherDisplay:10.37,2013-03-26 12:23:00,
2013-03-26 06:28:00,27.5,8.4,30.15,WNW,288,10.4,10.4,44,0.00,CLR,,0.00,WeatherDisplay:10.37,2013-03-26 12:28:00,
2013-03-26 06:33:00,27.5,8.4,30.14,WNW,285,11.5,11.5,44,0.00,CLR,,0.00,WeatherDisplay:10.37,2013-03-26 12:33:00,
2013-03-26 06:38:00,27.5,8.9,30.14,WSW,254,6.0,6.0,45,0.00,CLR,,0.00,WeatherDisplay:10.37,2013-03-26 12:38:00,
2013-03-26 06:43:00,27.8,8.7,30.14,West,276,10.4,10.4,44,0.00,CLR,,0.00,WeatherDisplay:10.37,2013-03-26 12:43:00,
2013-03-26 06:48:00,27.8,8.7,30.14,West,278,5.8,5.8,44,0.00,CLR,,0.00,WeatherDisplay:10.37,2013-03-26 12:48:00,
2013-03-26 06:53:00,27.9,8.8,30.14,West,276,6.9,6.9,44,0.00,CLR,,0.00,WeatherDisplay:10.37,2013-03-26 12:53:00,
2013-03-26 06:58:00,27.8,9.2,30.14,WNW,282,7.0,7.0,45,0.00,CLR,,0.00,WeatherDisplay:10.37,2013-03-26 12:58:00,
2013-03-26 07:03:00,27.6,8.5,30.14,West,268,8.1,8.1,44,0.00,CLR,,0.00,WeatherDisplay:10.37,2013-03-26 13:03:00,
2013-03-26 07:08:00,27.8,8.7,30.14,West,264,10.0,10.0,44,0.00,CLR,,0.00,WeatherDisplay:10.37,2013-03-26 13:08:00,
2013-03-26 07:13:00,27.8,8.2,30.14,WSW,245,17.3,17.3,43,0.00,CLR,,0.00,WeatherDisplay:10.37,2013-03-26 13:13:00,
2013-03-26 07:18:00,27.6,8.5,30.16,WSW,248,12.0,12.0,44,0.00,CLR,,0.00,WeatherDisplay:10.37,2013-03-26 13:18:00,
2013-03-26 07:23:00,27.5,8.9,30.16,WSW,237,11.5,11.5,45,0.00,CLR,,0.00,WeatherDisplay:10.37,2013-03-26 13:23:00,
2013-03-26 07:28:00,27.6,9.0,30.16,WSW,245,11.5,11.5,45,0.00,CLR,,0.00,WeatherDisplay:10.37,2013-03-26 13:28:00,
2013-03-26 07:33:00,27.9,9.3,30.16,SW,230,16.1,16.1,45,0.00,CLR,,0.00,WeatherDisplay:10.37,2013-03-26 13:33:00,
2013-03-26 07:38:00,28.2,9.5,30.16,WSW,240,13.8,13.8,45,0.00,CLR,,0.00,WeatherDisplay:10.37,2013-03-26 13:38:00,
2013-03-26 07:43:00,28.5,9.8,30.16,WSW,240,16.1,16.1,45,0.00,CLR,,0.00,WeatherDisplay:10.37,2013-03-26 13:43:00,
2013-03-26 07:48:00,28.5,10.3,30.15,SW,225,17.3,17.3,46,0.00,CLR,,0.00,WeatherDisplay:10.37,2013-03-26 13:48:00,
2013-03-26 07:53:00,29.0,10.3,30.15,WSW,237,19.6,19.6,45,0.00,CLR,,0.00,WeatherDisplay:10.37,2013-03-26 13:53:00,
2013-03-26 07:58:00,29.1,9.9,30.15,SW,220,18.4,18.4,44,0.00,CLR,,0.00,WeatherDisplay:10.37,2013-03-26 13:58:00,
2013-03-26 08:03:00,29.1,9.9,30.15,SW,218,18.4,18.4,44,0.00,CLR,,0.00,WeatherDisplay:10.37,2013-03-26 14:03:00,
2013-03-26 08:08:00,29.0,10.3,30.15,SW,214,19.6,19.6,45,0.00,CLR,,0.00,WeatherDisplay:10.37,2013-03-26 14:08:00,
2013-03-26 08:13:00,29.0,10.3,30.15,SW,231,19.6,19.6,45,0.00,CLR,,0.00,WeatherDisplay:10.37,2013-03-26 14:13:00,
2013-03-26 08:18:00,29.1,10.4,30.18,WSW,258,17.3,17.3,45,0.00,CLR,,0.00,WeatherDisplay:10.37,2013-03-26 14:18:00,
2013-03-26 08:23:00,29.0,10.8,30.18,West,262,11.5,11.5,46,0.00,CLR,,0.00,WeatherDisplay:10.37,2013-03-26 14:23:00,
2013-03-26 08:28:00,29.1,11.4,30.18,West,259,16.1,16.1,47,0.00,CLR,,0.00,WeatherDisplay:10.37,2013-03-26 14:28:00,
2013-03-26 08:33:00,29.4,11.6,30.20,WSW,247,7.0,7.0,47,0.00,CLR,,0.00,WeatherDisplay:10.37,2013-03-26 14:33:00,
2013-03-26 08:38:00,29.5,11.2,30.20,SW,216,11.5,11.5,46,0.00,CLR,,0.00,WeatherDisplay:10.37,2013-03-26 14:38:00,
2013-03-26 08:43:00,30.0,11.7,30.20,WSW,242,10.4,10.4,46,0.00,CLR,,0.00,WeatherDisplay:10.37,2013-03-26 14:43:00,
2013-03-26 08:48:00,30.3,11.5,30.18,WSW,238,12.7,12.7,45,0.00,CLR,,0.00,WeatherDisplay:10.37,2013-03-26 14:48:00,
2013-03-26 08:53:00,30.3,11.5,30.18,SW,224,12.7,12.7,45,0.00,CLR,,0.00,WeatherDisplay:10.37,2013-03-26 14:53:00,
2013-03-26 08:58:00,30.4,11.6,30.18,WSW,245,11.5,11.5,45,0.00,CLR,,0.00,WeatherDisplay:10.37,2013-03-26 14:58:00,
2013-03-26 09:03:00,30.6,11.7,30.18,SW,225,11.5,11.5,45,0.00,CLR,,0.00,WeatherDisplay:10.37,2013-03-26 15:03:00,
2013-03-26 09:08:00,31.0,12.6,30.18,South,187,11.5,11.5,46,0.00,CLR,,0.00,WeatherDisplay:10.37,2013-03-26 15:08:00,
2013-03-26 09:13:00,31.8,12.3,30.18,WSW,241,12.7,12.7,44,0.00,CLR,,0.00,WeatherDisplay:10.37,2013-03-26 15:13:00,
2013-03-26 09:18:00,32.4,12.4,30.19,SW,217,11.5,11.5,43,0.00,CLR,,0.00,WeatherDisplay:10.37,2013-03-26 15:18:00,
2013-03-26 09:23:00,32.9,12.3,30.19,SSW,206,13.8,13.8,42,0.00,CLR,,0.00,WeatherDisplay:10.37,2013-03-26 15:23:00,
2013-03-26 09:28:00,33.5,13.4,30.19,WSW,241,13.8,13.8,43,0.00,CLR,,0.00,WeatherDisplay:10.37,2013-03-26 15:28:00,
2013-03-26 09:33:00,34.1,12.8,30.17,SSW,203,16.1,16.1,41,0.00,CLR,,0.00,WeatherDisplay:10.37,2013-03-26 15:33:00,
2013-03-26 09:38:00,34.4,13.1,30.17,SSW,207,13.0,13.0,41,0.00,CLR,,0.00,WeatherDisplay:10.37,2013-03-26 15:38:00,
2013-03-26 09:43:00,34.7,13.9,30.17,SSW,194,13.8,13.8,42,0.00,CLR,,0.00,WeatherDisplay:10.37,2013-03-26 15:43:00,
2013-03-26 09:48:00,34.9,13.5,30.17,SW,231,18.4,18.4,41,0.00,CLR,,0.00,WeatherDisplay:10.37,2013-03-26 15:48:00,
2013-03-26 09:53:00,35.3,13.9,30.17,SSW,197,16.1,16.1,41,0.00,CLR,,0.00,WeatherDisplay:10.37,2013-03-26 15:53:00,
2013-03-26 09:58:00,35.3,15.5,30.17,SSW,199,12.0,12.0,44,0.00,CLR,,0.00,WeatherDisplay:10.37,2013-03-26 15:58:00,
2013-03-26 10:03:00,35.5,13.5,30.15,WSW,238,11.5,11.5,40,0.00,CLR,,0.00,WeatherDisplay:10.37,2013-03-26 16:03:00,
2013-03-26 10:08:00,36.0,14.0,30.15,WSW,241,12.0,12.0,40,0.00,CLR,,0.00,WeatherDisplay:10.37,2013-03-26 16:08:00,
2013-03-26 10:13:00,36.0,14.0,30.15,SW,223,5.8,5.8,40,0.00,CLR,,0.00,WeatherDisplay:10.37,2013-03-26 16:13:00,
2013-03-26 10:18:00,36.5,13.3,30.17,WSW,237,8.1,8.1,38,0.00,CLR,,0.00,WeatherDisplay:10.37,2013-03-26 16:18:00,
2013-03-26 10:23:00,36.9,15.4,30.17,South,183,7.0,7.0,41,0.00,CLR,,0.00,WeatherDisplay:10.37,2013-03-26 16:23:00,
2013-03-26 10:28:00,36.8,13.5,30.17,South,189,8.1,8.1,38,0.00,CLR,,0.00,WeatherDisplay:10.37,2013-03-26 16:28:00,
2013-03-26 10:33:00,37.0,13.7,30.16,WSW,242,10.4,10.4,38,0.00,CLR,,0.00,WeatherDisplay:10.37,2013-03-26 16:33:00,
2013-03-26 10:38:00,37.3,14.0,30.16,SSW,213,12.7,12.7,38,0.00,CLR,,0.00,WeatherDisplay:10.37,2013-03-26 16:38:00,
2013-03-26 10:43:00,37.5,14.8,30.16,SSW,196,11.5,11.5,39,0.00,CLR,,0.00,WeatherDisplay:10.37,2013-03-26 16:43:00,
2013-03-26 10:48:00,37.6,14.2,30.15,West,261,11.5,11.5,38,0.00,CLR,,0.00,WeatherDisplay:10.37,2013-03-26 16:48:00,
2013-03-26 10:53:00,37.9,14.5,30.15,SSW,211,11.5,11.5,38,0.00,CLR,,0.00,WeatherDisplay:10.37,2013-03-26 16:53:00,
2013-03-26 10:58:00,38.2,15.4,30.15,WSW,240,10.4,10.4,39,0.00,CLR,,0.00,WeatherDisplay:10.37,2013-03-26 16:58:00,
2013-03-26 11:03:00,38.6,13.9,30.13,WSW,238,11.5,11.5,36,0.00,CLR,,0.00,WeatherDisplay:10.37,2013-03-26 17:03:00,
2013-03-26 11:08:00,39.3,15.2,30.13,SW,227,4.6,4.6,37,0.00,CLR,,0.00,WeatherDisplay:10.37,2013-03-26 17:08:00,
2013-03-26 11:13:00,39.6,15.4,30.13,WSW,242,11.0,11.0,37,0.00,CLR,,0.00,WeatherDisplay:10.37,2013-03-26 17:13:00,
2013-03-26 11:18:00,39.8,14.3,30.12,West,272,13.8,13.8,35,0.00,CLR,,0.00,WeatherDisplay:10.37,2013-03-26 17:18:00,
2013-03-26 11:23:00,40.2,14.7,30.12,SW,227,11.5,11.5,35,0.00,CLR,,0.00,WeatherDisplay:10.37,2013-03-26 17:23:00,
2013-03-26 11:28:00,40.8,16.5,30.12,West,280,11.5,11.5,37,0.00,CLR,,0.00,WeatherDisplay:10.37,2013-03-26 17:28:00,
2013-03-26 11:33:00,41.2,14.9,30.12,SW,225,10.0,10.0,34,0.00,CLR,,0.00,WeatherDisplay:10.37,2013-03-26 17:33:00,
2013-03-26 11:38:00,41.2,16.2,30.12,South,189,12.7,12.7,36,0.00,CLR,,0.00,WeatherDisplay:10.37,2013-03-26 17:38:00,
2013-03-26 11:43:00,40.9,14.6,30.12,SW,217,13.8,13.8,34,0.00,CLR,,0.00,WeatherDisplay:10.37,2013-03-26 17:43:00,
2013-03-26 11:48:00,40.6,15.7,30.10,WSW,256,11.5,11.5,36,0.00,CLR,,0.00,WeatherDisplay:10.37,2013-03-26 17:48:00,
2013-03-26 11:53:00,41.1,15.5,30.10,WNW,282,10.4,10.4,35,0.00,CLR,,0.00,WeatherDisplay:10.37,2013-03-26 17:53:00,
2013-03-26 11:58:00,41.8,15.4,30.10,SSW,208,11.5,11.5,34,0.00,CLR,,0.00,WeatherDisplay:10.37,2013-03-26 17:58:00,
2013-03-26 12:03:00,42.2,16.5,30.08,SSW,211,12.0,12.0,35,0.00,CLR,,0.00,WeatherDisplay:10.37,2013-03-26 18:03:00,
2013-03-26 12:08:00,42.6,16.2,30.08,SSW,210,12.0,12.0,34,0.00,CLR,,0.00,WeatherDisplay:10.37,2013-03-26 18:08:00,
2013-03-26 12:13:00,42.3,15.2,30.08,SW,220,13.8,13.8,33,0.00,CLR,,0.00,WeatherDisplay:10.37,2013-03-26 18:13:00,
2013-03-26 12:18:00,42.3,14.5,30.07,SW,231,16.1,16.1,32,0.00,CLR,,0.00,WeatherDisplay:10.37,2013-03-26 18:18:00,
2013-03-26 12:23:00,42.8,17.0,30.07,WSW,237,13.8,13.8,35,0.00,CLR,,0.00,WeatherDisplay:10.37,2013-03-26 18:23:00,
2013-03-26 12:28:00,42.8,16.3,30.07,WSW,251,12.0,12.0,34,0.00,CLR,,0.00,WeatherDisplay:10.37,2013-03-26 18:28:00,
2013-03-26 12:33:00,43.3,17.4,30.07,West,268,11.5,11.5,35,0.00,CLR,,0.00,WeatherDisplay:10.37,2013-03-26 18:33:00,
2013-03-26 12:38:00,43.8,17.2,30.07,SW,225,24.2,24.2,34,0.00,CLR,,0.00,WeatherDisplay:10.37,2013-03-26 18:38:00,
2013-03-26 12:43:00,44.1,16.8,30.07,West,280,19.6,19.6,33,0.00,CLR,,0.00,WeatherDisplay:10.37,2013-03-26 18:43:00,
2013-03-26 12:48:00,44.5,17.8,30.05,West,273,16.1,16.1,34,0.00,CLR,,0.00,WeatherDisplay:10.37,2013-03-26 18:48:00,
2013-03-26 12:53:00,43.3,17.4,30.05,WSW,247,21.9,21.9,35,0.00,CLR,,0.00,WeatherDisplay:10.37,2013-03-26 18:53:00,
2013-03-26 12:58:00,43.1,19.2,30.05,WSW,251,19.6,19.6,38,0.00,CLR,,0.00,WeatherDisplay:10.37,2013-03-26 18:58:00,
2013-03-26 13:03:00,42.6,18.1,30.08,WSW,245,17.3,17.3,37,0.00,CLR,,0.00,WeatherDisplay:10.37,2013-03-26 19:03:00,
2013-03-26 13:08:00,42.5,18.6,30.08,WNW,285,17.3,17.3,38,0.00,CLR,,0.00,WeatherDisplay:10.37,2013-03-26 19:08:00,
2013-03-26 13:13:00,42.9,19.0,30.08,West,262,21.9,21.9,38,0.00,CLR,,0.00,WeatherDisplay:10.37,2013-03-26 19:13:00,
2013-03-26 13:18:00,42.5,17.4,30.09,WSW,258,20.7,20.7,36,0.00,CLR,,0.00,WeatherDisplay:10.37,2013-03-26 19:18:00,
2013-03-26 13:23:00,42.6,18.7,30.09,WSW,247,17.3,17.3,38,0.00,CLR,,0.00,WeatherDisplay:10.37,2013-03-26 19:23:00,
2013-03-26 13:28:00,43.3,18.1,30.09,WSW,256,18.4,18.4,36,0.00,CLR,,0.00,WeatherDisplay:10.37,2013-03-26 19:28:00,
2013-03-26 13:33:00,43.2,19.3,30.08,SW,228,20.7,20.7,38,0.00,CLR,,0.00,WeatherDisplay:10.37,2013-03-26 19:33:00,
2013-03-26 13:38:00,43.6,19.0,30.08,SW,214,19.0,19.0,37,0.00,CLR,,0.00,WeatherDisplay:10.37,2013-03-26 19:38:00,
2013-03-26 13:43:00,43.5,18.3,30.08,WSW,245,16.1,16.1,36,0.00,CLR,,0.00,WeatherDisplay:10.37,2013-03-26 19:43:00,
2013-03-26 13:48:00,44.1,18.8,30.06,WSW,249,17.3,17.3,36,0.00,CLR,,0.00,WeatherDisplay:10.37,2013-03-26 19:48:00,
2013-03-26 13:53:00,43.8,18.5,30.06,WSW,245,19.6,19.6,36,0.00,CLR,,0.00,WeatherDisplay:10.37,2013-03-26 19:53:00,
2013-03-26 13:58:00,43.9,18.0,30.06,WSW,237,18.4,18.4,35,0.00,CLR,,0.00,WeatherDisplay:10.37,2013-03-26 19:58:00,
2013-03-26 14:03:00,43.8,19.2,30.05,WSW,244,18.0,18.0,37,0.00,CLR,,0.00,WeatherDisplay:10.37,2013-03-26 20:03:00,
2013-03-26 14:08:00,43.8,19.2,30.05,SW,228,18.0,18.0,37,0.00,CLR,,0.00,WeatherDisplay:10.37,2013-03-26 20:08:00,
2013-03-26 14:13:00,43.9,18.0,30.05,SW,220,16.1,16.1,35,0.00,CLR,,0.00,WeatherDisplay:10.37,2013-03-26 20:13:00,
2013-03-26 14:18:00,44.2,19.5,30.03,SW,234,19.6,19.6,37,0.00,CLR,,0.00,WeatherDisplay:10.37,2013-03-26 20:18:00,
2013-03-26 14:23:00,44.3,20.3,30.03,SW,217,17.0,17.0,38,0.00,CLR,,0.00,WeatherDisplay:10.37,2013-03-26 20:23:00,
2013-03-26 14:28:00,44.1,20.1,30.03,West,272,19.6,19.6,38,0.00,CLR,,0.00,WeatherDisplay:10.37,2013-03-26 20:28:00,
2013-03-26 14:33:00,44.9,21.4,30.02,NW,309,12.7,12.7,39,0.00,CLR,,0.00,WeatherDisplay:10.37,2013-03-26 20:33:00,
2013-03-26 14:38:00,45.2,20.4,30.02,WNW,282,19.6,19.6,37,0.00,CLR,,0.00,WeatherDisplay:10.37,2013-03-26 20:38:00,
2013-03-26 14:43:00,44.9,20.2,30.02,NNW,341,20.7,20.7,37,0.00,CLR,,0.00,WeatherDisplay:10.37,2013-03-26 20:43:00,
2013-03-26 14:48:00,45.1,20.3,30.01,West,266,8.1,8.1,37,0.00,CLR,,0.00,WeatherDisplay:10.37,2013-03-26 20:48:00,
2013-03-26 14:53:00,44.9,20.2,30.01,WSW,252,20.7,20.7,37,0.00,CLR,,0.00,WeatherDisplay:10.37,2013-03-26 20:53:00,
2013-03-26 14:58:00,45.5,21.3,30.01,West,272,12.7,12.7,38,0.00,CLR,,0.00,WeatherDisplay:10.37,2013-03-26 20:58:00,
2013-03-26 15:03:00,45.8,19.7,30.00,WSW,245,13.8,13.8,35,0.00,CLR,,0.00,WeatherDisplay:10.37,2013-03-26 21:03:00,
2013-03-26 15:08:00,46.0,21.1,30.00,WNW,293,11.0,11.0,37,0.00,CLR,,0.00,WeatherDisplay:10.37,2013-03-26 21:08:00,
2013-03-26 15:13:00,46.1,22.5,30.00,SW,234,11.5,11.5,39,0.00,CLR,,0.00,WeatherDisplay:10.37,2013-03-26 21:13:00,
2013-03-26 15:18:00,45.4,18.6,29.98,West,262,19.6,19.6,34,0.00,CLR,,0.00,WeatherDisplay:10.37,2013-03-26 21:18:00,
2013-03-26 15:23:00,43.9,21.1,29.98,SW,227,22.0,22.0,40,0.00,CLR,,0.00,WeatherDisplay:10.37,2013-03-26 21:23:00,
2013-03-26 15:28:00,42.8,21.3,29.98,WSW,241,17.3,17.3,42,0.00,CLR,,0.00,WeatherDisplay:10.37,2013-03-26 21:28:00,
2013-03-26 15:33:00,42.8,21.8,30.00,SW,220,16.1,16.1,43,0.00,CLR,,0.00,WeatherDisplay:10.37,2013-03-26 21:33:00,
2013-03-26 15:38:00,43.9,21.7,30.00,WSW,244,19.6,19.6,41,0.00,CLR,,0.00,WeatherDisplay:10.37,2013-03-26 21:38:00,
2013-03-26 15:43:00,43.8,22.2,30.00,WNW,288,19.6,19.6,42,0.00,CLR,,0.00,WeatherDisplay:10.37,2013-03-26 21:43:00,
2013-03-26 15:48:00,43.1,23.2,30.00,WNW,293,11.5,11.5,45,0.00,CLR,,0.00,WeatherDisplay:10.37,2013-03-26 21:48:00,
2013-03-26 15:53:00,42.3,23.0,30.00,WSW,258,16.1,16.1,46,0.00,CLR,,0.00,WeatherDisplay:10.37,2013-03-26 21:53:00,
2013-03-26 15:58:00,42.6,23.2,30.00,SW,231,12.7,12.7,46,0.00,CLR,,0.00,WeatherDisplay:10.37,2013-03-26 21:58:00,
2013-03-26 16:03:00,42.8,22.9,29.99,WNW,297,16.1,16.1,45,0.00,CLR,,0.00,WeatherDisplay:10.37,2013-03-26 22:03:00,
2013-03-26 16:08:00,42.5,22.6,29.99,WNW,295,17.3,17.3,45,0.00,CLR,,0.00,WeatherDisplay:10.37,2013-03-26 22:08:00,
2013-03-26 16:13:00,42.2,23.4,29.99,West,261,13.8,13.8,47,0.00,CLR,,0.00,WeatherDisplay:10.37,2013-03-26 22:13:00,
2013-03-26 16:18:00,42.2,23.4,29.97,West,276,16.0,16.0,47,0.00,CLR,,0.00,WeatherDisplay:10.37,2013-03-26 22:18:00,
2013-03-26 16:23:00,41.8,23.0,29.97,West,278,20.7,20.7,47,0.00,CLR,,0.00,WeatherDisplay:10.37,2013-03-26 22:23:00,
2013-03-26 16:28:00,41.5,22.2,29.97,West,264,11.5,11.5,46,0.00,CLR,,0.00,WeatherDisplay:10.37,2013-03-26 22:28:00,
2013-03-26 16:33:00,41.6,22.8,29.98,WNW,300,12.7,12.7,47,0.00,CLR,,0.00,WeatherDisplay:10.37,2013-03-26 22:33:00,
2013-03-26 16:38:00,41.3,23.1,29.98,WNW,297,13.8,13.8,48,0.00,CLR,,0.00,WeatherDisplay:10.37,2013-03-26 22:38:00,
2013-03-26 16:43:00,40.6,22.4,29.98,West,275,13.0,13.0,48,0.00,CLR,,0.00,WeatherDisplay:10.37,2013-03-26 22:43:00,
2013-03-26 16:48:00,40.6,22.4,29.98,WNW,290,17.3,17.3,48,0.00,CLR,,0.00,WeatherDisplay:10.37,2013-03-26 22:48:00,
2013-03-26 16:53:00,40.9,22.2,29.98,WNW,292,17.3,17.3,47,0.00,CLR,,0.00,WeatherDisplay:10.37,2013-03-26 22:53:00,
2013-03-26 16:59:00,40.8,21.6,29.98,West,276,20.7,20.7,46,0.00,CLR,,0.00,WeatherDisplay:10.37,2013-03-26 22:59:00,
2013-03-26 17:04:00,40.6,23.4,29.98,West,276,17.3,17.3,50,0.00,CLR,,0.00,WeatherDisplay:10.37,2013-03-26 23:04:00,
2013-03-26 17:09:00,40.5,23.3,29.98,West,279,18.4,18.4,50,0.00,CLR,,0.00,WeatherDisplay:10.37,2013-03-26 23:09:00,
2013-03-26 17:14:00,40.9,21.7,29.98,SSW,197,21.9,21.9,46,0.00,CLR,,0.00,WeatherDisplay:10.37,2013-03-26 23:14:00,
2013-03-26 17:19:00,41.3,21.5,29.94,SW,234,18.4,18.4,45,0.00,CLR,,0.00,WeatherDisplay:10.37,2013-03-26 23:19:00,
2013-03-26 17:24:00,41.2,20.9,29.94,WNW,288,12.7,12.7,44,0.00,CLR,,0.00,WeatherDisplay:10.37,2013-03-26 23:24:00,
2013-03-26 17:29:00,41.1,20.3,29.94,WNW,282,10.4,10.4,43,0.00,CLR,,0.00,WeatherDisplay:10.37,2013-03-26 23:29:00,
2013-03-26 17:34:00,40.8,20.0,29.95,WSW,237,11.5,11.5,43,0.00,CLR,,0.00,WeatherDisplay:10.37,2013-03-26 23:34:00,
2013-03-26 17:39:00,40.8,20.0,29.95,WSW,249,8.1,8.1,43,0.00,CLR,,0.00,WeatherDisplay:10.37,2013-03-26 23:39:00,
2013-03-26 17:44:00,40.8,20.0,29.95,WSW,242,13.8,13.8,43,0.00,CLR,,0.00,WeatherDisplay:10.37,2013-03-26 23:44:00,
2013-03-26 17:49:00,40.9,19.0,29.95,SW,234,5.8,5.8,41,0.00,CLR,,0.00,WeatherDisplay:10.37,2013-03-26 23:49:00,
2013-03-26 17:54:00,40.9,19.0,29.95,South,186,10.4,10.4,41,0.00,CLR,,0.00,WeatherDisplay:10.37,2013-03-26 23:54:00,
2013-03-26 17:59:00,40.8,19.5,29.95,WNW,285,3.5,3.5,42,0.00,CLR,,0.00,WeatherDisplay:10.37,2013-03-26 23:59:00,
2013-03-26 18:04:00,40.9,17.8,29.97,WNW,290,8.1,8.1,39,0.00,CLR,,0.00,WeatherDisplay:10.37,2013-03-27 00:04:00,
2013-03-26 18:09:00,41.1,18.6,29.97,West,276,13.0,13.0,40,0.00,CLR,,0.00,WeatherDisplay:10.37,2013-03-27 00:09:00,
2013-03-26 18:14:00,41.1,19.2,29.97,SW,232,13.0,13.0,41,0.00,CLR,,0.00,WeatherDisplay:10.37,2013-03-27 00:14:00,
2013-03-26 18:19:00,40.8,19.5,29.91,West,275,19.6,19.6,42,0.00,CLR,,0.00,WeatherDisplay:10.37,2013-03-27 00:19:00,
2013-03-26 18:24:00,40.3,20.1,29.91,WNW,297,19.6,19.6,44,0.00,CLR,,0.00,WeatherDisplay:10.37,2013-03-27 00:24:00,
2013-03-26 18:29:00,39.8,21.2,29.91,WNW,292,13.8,13.8,47,0.00,CLR,,0.00,WeatherDisplay:10.37,2013-03-27 00:29:00,
2013-03-26 18:34:00,39.5,20.9,29.92,WNW,297,12.7,12.7,47,0.00,CLR,,0.00,WeatherDisplay:10.37,2013-03-27 00:34:00,
2013-03-26 18:39:00,39.3,20.7,29.92,West,259,8.0,8.0,47,0.00,CLR,,0.00,WeatherDisplay:10.37,2013-03-27 00:39:00,
2013-03-26 18:44:00,39.3,20.7,29.92,WNW,285,11.5,11.5,47,0.00,CLR,,0.00,WeatherDisplay:10.37,2013-03-27 00:44:00,
2013-03-26 18:49:00,39.2,21.1,29.94,West,261,10.0,10.0,48,0.00,CLR,,0.00,WeatherDisplay:10.37,2013-03-27 00:49:00,
2013-03-26 18:54:00,39.2,20.6,29.94,NW,306,11.5,11.5,47,0.00,CLR,,0.00,WeatherDisplay:10.37,2013-03-27 00:54:00,
2013-03-26 18:59:00,39.1,21.0,29.94,WNW,292,10.4,10.4,48,0.00,CLR,,0.00,WeatherDisplay:10.37,2013-03-27 00:59:00,
2013-03-26 19:04:00,38.8,21.3,29.94,NW,326,8.1,8.1,49,0.00,CLR,,0.00,WeatherDisplay:10.37,2013-03-27 01:04:00,
2013-03-26 19:09:00,38.6,21.1,29.94,West,266,10.4,10.4,49,0.00,CLR,,0.00,WeatherDisplay:10.37,2013-03-27 01:09:00,
2013-03-26 19:14:00,38.6,21.5,29.94,WNW,285,11.5,11.5,50,0.00,CLR,,0.00,WeatherDisplay:10.37,2013-03-27 01:14:00,
2013-03-26 19:19:00,38.8,21.3,29.93,WSW,255,11.5,11.5,49,0.00,CLR,,0.00,WeatherDisplay:10.37,2013-03-27 01:19:00,
2013-03-26 19:24:00,38.8,21.3,29.93,West,280,5.8,5.8,49,0.00,CLR,,0.00,WeatherDisplay:10.37,2013-03-27 01:24:00,
2013-03-26 19:29:00,38.8,21.3,29.93,SW,224,11.5,11.5,49,0.00,CLR,,0.00,WeatherDisplay:10.37,2013-03-27 01:29:00,
2013-03-26 19:34:00,38.8,21.3,29.94,SW,235,6.9,6.9,49,0.00,CLR,,0.00,WeatherDisplay:10.37,2013-03-27 01:34:00,
2013-03-26 19:39:00,38.6,21.1,29.94,SW,231,4.6,4.6,49,0.00,CLR,,0.00,WeatherDisplay:10.37,2013-03-27 01:39:00,
2013-03-26 19:44:00,38.5,21.5,29.94,WSW,249,6.9,6.9,50,0.00,CLR,,0.00,WeatherDisplay:10.37,2013-03-27 01:44:00,
2013-03-26 19:49:00,38.5,21.0,29.94,WNW,285,11.5,11.5,49,0.00,CLR,,0.00,WeatherDisplay:10.37,2013-03-27 01:49:00,
2013-03-26 19:54:00,38.5,21.5,29.94,West,269,10.4,10.4,50,0.00,CLR,,0.00,WeatherDisplay:10.37,2013-03-27 01:54:00,
2013-03-26 19:59:00,38.5,21.5,29.94,WSW,249,4.6,4.6,50,0.00,CLR,,0.00,WeatherDisplay:10.37,2013-03-27 01:59:00,
2013-03-26 20:04:00,38.5,21.5,29.96,WSW,258,10.4,10.4,50,0.00,CLR,,0.00,WeatherDisplay:10.37,2013-03-27 02:04:00,
2013-03-26 20:09:00,38.6,21.1,29.96,WSW,248,8.1,8.1,49,0.00,CLR,,0.00,WeatherDisplay:10.37,2013-03-27 02:09:00,
2013-03-26 20:14:00,38.5,21.5,29.96,WSW,249,5.0,5.0,50,0.00,CLR,,0.00,WeatherDisplay:10.37,2013-03-27 02:14:00,
2013-03-26 20:19:00,38.2,22.1,29.97,WNW,292,11.5,11.5,52,0.00,CLR,,0.00,WeatherDisplay:10.37,2013-03-27 02:19:00,
2013-03-26 20:24:00,37.6,22.9,29.97,WNW,293,6.9,6.9,55,0.00,CLR,,0.00,WeatherDisplay:10.37,2013-03-27 02:24:00,
2013-03-26 20:29:00,37.2,23.4,29.97,WNW,300,4.6,4.6,57,0.00,CLR,,0.00,WeatherDisplay:10.37,2013-03-27 02:29:00,
2013-03-26 20:34:00,36.9,23.5,29.97,WNW,293,3.5,3.5,58,0.00,CLR,,0.00,WeatherDisplay:10.37,2013-03-27 02:34:00,
2013-03-26 20:39:00,36.6,23.6,29.97,SW,216,5.0,5.0,59,0.00,CLR,,0.00,WeatherDisplay:10.37,2013-03-27 02:39:00,
2013-03-26 20:44:00,36.5,24.3,29.97,SSW,197,3.5,3.5,61,0.00,CLR,,0.00,WeatherDisplay:10.37,2013-03-27 02:44:00,
2013-03-26 20:49:00,36.0,23.0,29.97,East,88,5.8,5.8,59,0.00,CLR,,0.00,WeatherDisplay:10.37,2013-03-27 02:49:00,
2013-03-26 20:54:00,35.3,19.9,29.97,ENE,59,8.1,8.1,53,0.00,CLR,,0.00,WeatherDisplay:10.37,2013-03-27 02:54:00,
2013-03-26 20:59:00,34.7,19.7,29.97,NNE,24,5.8,5.8,54,0.00,CLR,,0.00,WeatherDisplay:10.37,2013-03-27 02:59:00,
2013-03-26 21:04:00,34.6,19.2,30.00,ENE,64,5.8,5.8,53,0.00,CLR,,0.00,WeatherDisplay:10.37,2013-03-27 03:04:00,
2013-03-26 21:09:00,34.4,19.5,30.00,NE,55,3.5,3.5,54,0.00,CLR,,0.00,WeatherDisplay:10.37,2013-03-27 03:09:00,
2013-03-26 21:14:00,34.3,18.9,30.00,East,79,2.3,2.3,53,0.00,CLR,,0.00,WeatherDisplay:10.37,2013-03-27 03:14:00,
2013-03-26 21:19:00,34.3,18.9,29.95,ENE,77,3.5,3.5,53,0.00,CLR,,0.00,WeatherDisplay:10.37,2013-03-27 03:19:00,
2013-03-26 21:24:00,34.1,19.2,29.95,NNE,21,2.3,2.3,54,0.00,CLR,,0.00,WeatherDisplay:10.37,2013-03-27 03:24:00,
2013-03-26 21:29:00,34.1,19.2,29.95,NNE,21,2.3,2.3,54,0.00,CLR,,0.00,WeatherDisplay:10.37,2013-03-27 03:29:00,
2013-03-26 21:34:00,34.1,18.7,29.96,NE,50,4.6,4.6,53,0.00,CLR,,0.00,WeatherDisplay:10.37,2013-03-27 03:34:00,
2013-03-26 21:39:00,34.1,19.2,29.96,NE,50,2.3,2.3,54,0.00,CLR,,0.00,WeatherDisplay:10.37,2013-03-27 03:39:00,
2013-03-26 21:44:00,34.1,19.2,29.96,NE,50,3.5,3.5,54,0.00,CLR,,0.00,WeatherDisplay:10.37,2013-03-27 03:44:00,
2013-03-26 21:49:00,34.0,19.5,29.97,NE,50,2.3,2.3,55,0.00,CLR,,0.00,WeatherDisplay:10.37,2013-03-27 03:49:00,
2013-03-26 21:54:00,33.8,19.3,29.97,NE,46,4.6,4.6,55,0.00,CLR,,0.00,WeatherDisplay:10.37,2013-03-27 03:54:00,
2013-03-26 21:59:00,33.8,20.2,29.97,ENE,74,4.6,4.6,57,0.00,CLR,,0.00,WeatherDisplay:10.37,2013-03-27 03:59:00,
2013-03-26 22:00:00,33.8,20.2,29.97,East,96,4.6,4.6,57,0.00,CLR,,0.00,WeatherDisplay:10.37,2013-03-27 04:00:00,
2013-03-26 22:01:00,34.0,20.8,29.98,East,96,2.3,2.3,58,0.00,CLR,,0.00,WeatherDisplay:10.37,2013-03-27 04:01:00,
2013-03-26 22:06:00,34.3,19.8,29.98,East,96,5.0,5.0,55,0.00,CLR,,0.00,WeatherDisplay:10.37,2013-03-27 04:06:00,
2013-03-26 22:11:00,34.6,19.6,29.98,East,96,3.5,3.5,54,0.00,CLR,,0.00,WeatherDisplay:10.37,2013-03-27 04:11:00,
2013-03-26 22:16:00,34.7,19.3,29.94,NE,53,7.0,7.0,53,0.00,CLR,,0.00,WeatherDisplay:10.37,2013-03-27 04:16:00,
2013-03-26 22:21:00,34.7,19.3,29.94,NNW,348,11.0,11.0,53,0.00,CLR,,0.00,WeatherDisplay:10.37,2013-03-27 04:21:00,
2013-03-26 22:26:00,34.6,19.6,29.94,NNE,16,8.1,8.1,54,0.00,CLR,,0.00,WeatherDisplay:10.37,2013-03-27 04:26:00,
2013-03-26 22:31:00,34.4,19.9,29.95,NNE,14,8.1,8.1,55,0.00,CLR,,0.00,WeatherDisplay:10.37,2013-03-27 04:31:00,
2013-03-26 22:36:00,34.4,19.5,29.95,NNE,32,6.9,6.9,54,0.00,CLR,,0.00,WeatherDisplay:10.37,2013-03-27 04:36:00,
2013-03-26 22:41:00,34.1,20.0,29.95,NE,36,4.6,4.6,56,0.00,CLR,,0.00,WeatherDisplay:10.37,2013-03-27 04:41:00,
2013-03-26 22:46:00,34.1,19.6,29.97,NNE,26,6.9,6.9,55,0.00,CLR,,0.00,WeatherDisplay:10.37,2013-03-27 04:46:00,
2013-03-26 22:51:00,34.0,19.5,29.97,NE,42,6.9,6.9,55,0.00,CLR,,0.00,WeatherDisplay:10.37,2013-03-27 04:51:00,
2013-03-26 22:56:00,34.0,19.5,29.97,NNE,18,8.1,8.1,55,0.00,CLR,,0.00,WeatherDisplay:10.37,2013-03-27 04:56:00,
2013-03-26 23:01:00,33.8,18.5,29.97,NNE,25,11.5,11.5,53,0.00,CLR,,0.00,WeatherDisplay:10.37,2013-03-27 05:01:00,
2013-03-26 23:06:00,33.8,17.6,29.97,NNE,26,8.1,8.1,51,0.00,CLR,,0.00,WeatherDisplay:10.37,2013-03-27 05:06:00,
2013-03-26 23:11:00,33.8,18.5,29.97,NNE,24,10.4,10.4,53,0.00,CLR,,0.00,WeatherDisplay:10.37,2013-03-27 05:11:00,
2013-03-26 23:16:00,33.5,18.2,29.94,NNE,14,6.9,6.9,53,0.00,CLR,,0.00,WeatherDisplay:10.37,2013-03-27 05:16:00,
2013-03-26 23:22:00,33.5,19.9,29.94,NE,55,6.9,6.9,57,0.00,CLR,,0.00,WeatherDisplay:10.37,2013-03-27 05:22:00,
2013-03-26 23:27:00,33.2,20.4,29.94,North,357,10.4,10.4,59,0.00,CLR,,0.00,WeatherDisplay:10.37,2013-03-27 05:27:00,
2013-03-26 23:32:00,33.1,20.3,29.95,North,352,4.6,4.6,59,0.00,CLR,,0.00,WeatherDisplay:10.37,2013-03-27 05:32:00,
2013-03-26 23:37:00,32.9,20.5,29.95,North,354,3.5,3.5,60,0.00,CLR,,0.00,WeatherDisplay:10.37,2013-03-27 05:37:00,
2013-03-26 23:42:00,32.8,20.8,29.95,North,354,5.8,5.8,61,0.00,CLR,,0.00,WeatherDisplay:10.37,2013-03-27 05:42:00,
2013-03-26 23:47:00,32.7,21.5,29.95,North,350,5.8,5.8,63,0.00,CLR,,0.00,WeatherDisplay:10.37,2013-03-27 05:47:00,
2013-03-26 23:52:00,32.5,21.7,29.95,North,355,5.0,5.0,64,0.00,CLR,,0.00,WeatherDisplay:10.37,2013-03-27 05:52:00,
2013-03-26 23:57:00,32.1,21.7,29.95,North,350,6.0,6.0,65,0.00,CLR,,0.00,WeatherDisplay:10.37,2013-03-27 05:57:00,